TGW656 WSSS-VTSP
Flight info
| Callsign | TGW656 |
|---|---|
| Flight time | 1h 32m |
| Altitude | 38000 |
| Route | AROSO3A AROSO Y513 KALIL Y501 RINBA Y502 DUBAX R325 URGAD URGAD1C |
| Aircraft | A20N/M-SDE2E3FGHIRWXY/LB1 |
Departure
| Time | 2026-05-04 03:09 |
|---|---|
| Airport | Singapore Changi Airport (WSSS) |
Arrival
| Time | 2026-05-04 04:42 |
|---|---|
| Airport | Phuket International Airport (VTSP) |
| Time | Latitude | Longitude | Altitude | Speed | Heading |
|---|---|---|---|---|---|
| 2026-05-04 02:38 | 1.36513 | 103.99385 | 34 ft | 0 kts | 131° |
| 2026-05-04 03:01 | 1.36521 | 103.99376 | 30 ft | 2 kts | 131° |
| 2026-05-04 03:02 | 1.36533 | 103.99363 | 30 ft | 2 kts | 134° |
| 2026-05-04 03:02 | 1.36544 | 103.99351 | 30 ft | 2 kts | 123° |
| 2026-05-04 03:02 | 1.36551 | 103.99337 | 30 ft | 2 kts | 102° |
| 2026-05-04 03:02 | 1.36553 | 103.99320 | 30 ft | 2 kts | 89° |
| 2026-05-04 03:03 | 1.36552 | 103.99304 | 30 ft | 2 kts | 74° |
| 2026-05-04 03:03 | 1.36545 | 103.99289 | 30 ft | 2 kts | 53° |
| 2026-05-04 03:03 | 1.36538 | 103.99280 | 30 ft | 1 kts | 52° |
| 2026-05-04 03:03 | 1.36537 | 103.99279 | 30 ft | 0 kts | 52° |
| 2026-05-04 03:06 | 1.36539 | 103.99281 | 30 ft | 2 kts | 52° |
| 2026-05-04 03:06 | 1.36567 | 103.99318 | 30 ft | 10 kts | 52° |
| 2026-05-04 03:06 | 1.36586 | 103.99391 | 30 ft | 12 kts | 112° |
| 2026-05-04 03:06 | 1.36549 | 103.99478 | 30 ft | 15 kts | 113° |
| 2026-05-04 03:07 | 1.36507 | 103.99575 | 30 ft | 16 kts | 114° |
| 2026-05-04 03:07 | 1.36459 | 103.99684 | 30 ft | 18 kts | 114° |
| 2026-05-04 03:07 | 1.36408 | 103.99800 | 30 ft | 19 kts | 108° |
| 2026-05-04 03:07 | 1.36322 | 103.99876 | 30 ft | 16 kts | 167° |
| 2026-05-04 03:08 | 1.36210 | 103.99892 | 30 ft | 15 kts | 175° |
| 2026-05-04 03:08 | 1.36177 | 103.99888 | 30 ft | 0 kts | 201° |
| 2026-05-04 03:08 | 1.36137 | 103.99872 | 30 ft | 28 kts | 201° |
| 2026-05-04 03:08 | 1.35734 | 103.99705 | 30 ft | 95 kts | 203° |
| 2026-05-04 03:09 | 1.34955 | 103.99379 | 30 ft | 145 kts | 202° |
| 2026-05-04 03:09 | 1.33970 | 103.98941 | 413 ft | 154 kts | 200° |
| 2026-05-04 03:09 | 1.32958 | 103.98506 | 930 ft | 163 kts | 202° |
| 2026-05-04 03:09 | 1.31898 | 103.98063 | 1515 ft | 165 kts | 203° |
| 2026-05-04 03:10 | 1.30825 | 103.97613 | 2040 ft | 174 kts | 203° |
| 2026-05-04 03:10 | 1.29665 | 103.97124 | 2401 ft | 193 kts | 203° |
| 2026-05-04 03:10 | 1.28348 | 103.96568 | 2764 ft | 218 kts | 203° |
| 2026-05-04 03:10 | 1.26858 | 103.95990 | 3299 ft | 240 kts | 192° |
| 2026-05-04 03:11 | 1.25137 | 103.96029 | 3843 ft | 261 kts | 163° |
| 2026-05-04 03:11 | 1.23542 | 103.96965 | 4584 ft | 272 kts | 134° |
| 2026-05-04 03:11 | 1.22547 | 103.98571 | 5508 ft | 276 kts | 111° |
| 2026-05-04 03:11 | 1.21866 | 104.00382 | 6422 ft | 280 kts | 110° |
| 2026-05-04 03:12 | 1.21187 | 104.02220 | 7309 ft | 284 kts | 109° |
| 2026-05-04 03:12 | 1.20849 | 104.04165 | 8149 ft | 287 kts | 86° |
| 2026-05-04 03:12 | 1.21388 | 104.06087 | 8990 ft | 291 kts | 60° |
| 2026-05-04 03:12 | 1.22721 | 104.07602 | 9814 ft | 294 kts | 34° |
| 2026-05-04 03:13 | 1.24577 | 104.08427 | 10430 ft | 305 kts | 12° |
| 2026-05-04 03:13 | 1.26763 | 104.08462 | 10639 ft | 328 kts | 348° |
| 2026-05-04 03:13 | 1.28968 | 104.07649 | 10882 ft | 347 kts | 333° |
| 2026-05-04 03:13 | 1.31128 | 104.06527 | 11514 ft | 352 kts | 333° |
| 2026-05-04 03:14 | 1.33337 | 104.05441 | 12212 ft | 355 kts | 335° |
| 2026-05-04 03:14 | 1.35506 | 104.04493 | 12858 ft | 359 kts | 338° |
| 2026-05-04 03:14 | 1.37837 | 104.03565 | 13527 ft | 363 kts | 339° |
| 2026-05-04 03:14 | 1.40218 | 104.02672 | 14151 ft | 367 kts | 340° |
| 2026-05-04 03:15 | 1.42633 | 104.01795 | 14763 ft | 371 kts | 341° |
| 2026-05-04 03:15 | 1.45094 | 104.00984 | 15361 ft | 374 kts | 343° |
| 2026-05-04 03:15 | 1.47593 | 104.00201 | 15926 ft | 378 kts | 343° |
| 2026-05-04 03:15 | 1.50089 | 103.99419 | 16472 ft | 382 kts | 344° |
| 2026-05-04 03:16 | 1.52635 | 103.98615 | 17012 ft | 385 kts | 343° |
| 2026-05-04 03:16 | 1.55207 | 103.97795 | 17547 ft | 389 kts | 343° |
| 2026-05-04 03:16 | 1.57793 | 103.96962 | 18075 ft | 393 kts | 344° |
| 2026-05-04 03:16 | 1.60411 | 103.96114 | 18545 ft | 396 kts | 343° |
| 2026-05-04 03:17 | 1.63045 | 103.95257 | 19014 ft | 399 kts | 343° |
| 2026-05-04 03:17 | 1.65694 | 103.94397 | 19474 ft | 401 kts | 343° |
| 2026-05-04 03:17 | 1.68330 | 103.93544 | 19925 ft | 404 kts | 343° |
| 2026-05-04 03:17 | 1.71014 | 103.92678 | 20383 ft | 407 kts | 344° |
| 2026-05-04 03:18 | 1.73672 | 103.91661 | 20818 ft | 412 kts | 334° |
| 2026-05-04 03:18 | 1.76082 | 103.90095 | 21252 ft | 417 kts | 321° |
| 2026-05-04 03:18 | 1.78105 | 103.88007 | 21678 ft | 421 kts | 309° |
| 2026-05-04 03:18 | 1.79897 | 103.85671 | 22110 ft | 424 kts | 308° |
| 2026-05-04 03:19 | 1.81703 | 103.83323 | 22544 ft | 427 kts | 308° |
| 2026-05-04 03:19 | 1.83517 | 103.80964 | 22963 ft | 430 kts | 308° |
| 2026-05-04 03:19 | 1.85353 | 103.78587 | 23390 ft | 433 kts | 308° |
| 2026-05-04 03:19 | 1.87200 | 103.76200 | 23752 ft | 436 kts | 309° |
| 2026-05-04 03:20 | 1.89066 | 103.73791 | 24118 ft | 438 kts | 308° |
| 2026-05-04 03:20 | 1.90934 | 103.71377 | 24468 ft | 440 kts | 308° |
| 2026-05-04 03:20 | 1.92805 | 103.68954 | 24825 ft | 441 kts | 308° |
| 2026-05-04 03:20 | 1.94661 | 103.66547 | 25157 ft | 444 kts | 308° |
| 2026-05-04 03:21 | 1.96550 | 103.64097 | 25495 ft | 446 kts | 308° |
| 2026-05-04 03:21 | 1.98444 | 103.61638 | 25829 ft | 447 kts | 308° |
| 2026-05-04 03:21 | 2.00347 | 103.59164 | 26145 ft | 450 kts | 308° |
| 2026-05-04 03:21 | 2.02259 | 103.56677 | 26466 ft | 452 kts | 308° |
| 2026-05-04 03:22 | 2.04175 | 103.54186 | 26768 ft | 454 kts | 308° |
| 2026-05-04 03:22 | 2.06104 | 103.51677 | 27075 ft | 456 kts | 308° |
| 2026-05-04 03:22 | 2.08041 | 103.49157 | 27368 ft | 458 kts | 308° |
| 2026-05-04 03:22 | 2.09982 | 103.46633 | 27669 ft | 459 kts | 308° |
| 2026-05-04 03:23 | 2.11927 | 103.44094 | 27958 ft | 461 kts | 307° |
| 2026-05-04 03:23 | 2.13679 | 103.41399 | 28238 ft | 463 kts | 299° |
| 2026-05-04 03:23 | 2.15091 | 103.38498 | 28508 ft | 465 kts | 292° |
| 2026-05-04 03:23 | 2.16142 | 103.35447 | 28778 ft | 467 kts | 286° |
| 2026-05-04 03:24 | 2.17033 | 103.32341 | 29027 ft | 469 kts | 286° |
| 2026-05-04 03:24 | 2.17946 | 103.29207 | 29301 ft | 470 kts | 286° |
| 2026-05-04 03:24 | 2.18857 | 103.26101 | 29555 ft | 472 kts | 286° |
| 2026-05-04 03:24 | 2.19790 | 103.22910 | 29806 ft | 473 kts | 286° |
| 2026-05-04 03:25 | 2.20713 | 103.19753 | 30057 ft | 475 kts | 286° |
| 2026-05-04 03:25 | 2.21645 | 103.16569 | 30280 ft | 476 kts | 286° |
| 2026-05-04 03:25 | 2.22576 | 103.13387 | 30517 ft | 478 kts | 286° |
| 2026-05-04 03:25 | 2.23496 | 103.10231 | 30737 ft | 479 kts | 286° |
| 2026-05-04 03:26 | 2.24426 | 103.07046 | 30966 ft | 481 kts | 286° |
| 2026-05-04 03:26 | 2.25365 | 103.03833 | 31256 ft | 480 kts | 286° |
| 2026-05-04 03:26 | 2.26289 | 103.00669 | 31560 ft | 480 kts | 286° |
| 2026-05-04 03:26 | 2.27220 | 102.97486 | 31874 ft | 479 kts | 287° |
| 2026-05-04 03:27 | 2.28129 | 102.94378 | 32171 ft | 478 kts | 287° |
| 2026-05-04 03:27 | 2.29055 | 102.91211 | 32462 ft | 478 kts | 287° |
| 2026-05-04 03:27 | 2.29985 | 102.88024 | 32767 ft | 477 kts | 286° |
| 2026-05-04 03:27 | 2.30912 | 102.84841 | 33070 ft | 476 kts | 286° |
| 2026-05-04 03:28 | 2.31839 | 102.81671 | 33346 ft | 475 kts | 287° |
| 2026-05-04 03:28 | 2.32769 | 102.78504 | 33625 ft | 474 kts | 287° |
| 2026-05-04 03:28 | 2.33685 | 102.75378 | 33897 ft | 474 kts | 287° |
| 2026-05-04 03:28 | 2.34608 | 102.72224 | 34144 ft | 473 kts | 287° |
| 2026-05-04 03:29 | 2.35532 | 102.69067 | 34376 ft | 472 kts | 287° |
| 2026-05-04 03:29 | 2.36451 | 102.65927 | 34616 ft | 471 kts | 287° |
| 2026-05-04 03:29 | 2.37372 | 102.62783 | 34850 ft | 470 kts | 287° |
| 2026-05-04 03:29 | 2.38289 | 102.59651 | 35078 ft | 469 kts | 287° |
| 2026-05-04 03:30 | 2.39202 | 102.56528 | 35304 ft | 468 kts | 287° |
| 2026-05-04 03:30 | 2.40114 | 102.53405 | 35518 ft | 467 kts | 287° |
| 2026-05-04 03:30 | 2.41025 | 102.50286 | 35750 ft | 467 kts | 287° |
| 2026-05-04 03:30 | 2.41936 | 102.47168 | 35980 ft | 466 kts | 287° |
| 2026-05-04 03:31 | 2.42844 | 102.44061 | 36214 ft | 465 kts | 287° |
| 2026-05-04 03:31 | 2.43752 | 102.40958 | 36449 ft | 464 kts | 286° |
| 2026-05-04 03:31 | 2.44664 | 102.37866 | 36693 ft | 463 kts | 289° |
| 2026-05-04 03:31 | 2.45923 | 102.34910 | 36921 ft | 462 kts | 300° |
| 2026-05-04 03:32 | 2.47708 | 102.32244 | 37133 ft | 461 kts | 310° |
| 2026-05-04 03:32 | 2.49919 | 102.29990 | 37312 ft | 460 kts | 321° |
| 2026-05-04 03:32 | 2.52436 | 102.28013 | 37525 ft | 460 kts | 322° |
| 2026-05-04 03:32 | 2.54959 | 102.26043 | 37720 ft | 460 kts | 322° |
| 2026-05-04 03:33 | 2.57469 | 102.24075 | 37897 ft | 460 kts | 322° |
| 2026-05-04 03:33 | 2.62499 | 102.20129 | 37942 ft | 458 kts | 322° |
| 2026-05-04 03:34 | 2.67523 | 102.16191 | 37942 ft | 458 kts | 322° |
| 2026-05-04 03:34 | 2.72507 | 102.12285 | 37936 ft | 459 kts | 322° |
| 2026-05-04 03:35 | 2.77579 | 102.08306 | 37937 ft | 459 kts | 322° |
| 2026-05-04 03:35 | 2.82602 | 102.04360 | 37927 ft | 459 kts | 322° |
| 2026-05-04 03:36 | 2.87618 | 102.00420 | 37924 ft | 458 kts | 322° |
| 2026-05-04 03:36 | 2.92594 | 101.96510 | 37920 ft | 458 kts | 322° |
| 2026-05-04 03:37 | 2.97602 | 101.92570 | 37920 ft | 458 kts | 322° |
| 2026-05-04 03:37 | 3.02615 | 101.88626 | 37923 ft | 458 kts | 322° |
| 2026-05-04 03:38 | 3.06778 | 101.85353 | 37927 ft | 458 kts | 322° |
| 2026-05-04 03:38 | 3.12607 | 101.80776 | 37936 ft | 458 kts | 322° |
| 2026-05-04 03:39 | 3.17618 | 101.76840 | 37936 ft | 458 kts | 322° |
| 2026-05-04 03:39 | 3.21813 | 101.73539 | 37940 ft | 458 kts | 322° |
| 2026-05-04 03:40 | 3.26828 | 101.69595 | 37941 ft | 458 kts | 323° |
| 2026-05-04 03:40 | 3.31875 | 101.65786 | 37942 ft | 457 kts | 327° |
| 2026-05-04 03:41 | 3.37451 | 101.62745 | 37942 ft | 456 kts | 337° |
| 2026-05-04 03:41 | 3.44201 | 101.59769 | 37945 ft | 456 kts | 337° |
| 2026-05-04 03:42 | 3.49054 | 101.57610 | 37950 ft | 456 kts | 336° |
| 2026-05-04 03:42 | 3.54817 | 101.55044 | 37951 ft | 456 kts | 336° |
| 2026-05-04 03:43 | 3.60614 | 101.52461 | 37950 ft | 456 kts | 336° |
| 2026-05-04 03:43 | 3.66412 | 101.49888 | 37955 ft | 455 kts | 336° |
| 2026-05-04 03:44 | 3.72204 | 101.47313 | 37956 ft | 455 kts | 336° |
| 2026-05-04 03:44 | 3.77994 | 101.44734 | 37960 ft | 455 kts | 336° |
| 2026-05-04 03:45 | 3.83742 | 101.42174 | 37957 ft | 454 kts | 336° |
| 2026-05-04 03:45 | 3.89517 | 101.39604 | 37959 ft | 454 kts | 336° |
| 2026-05-04 03:46 | 3.95288 | 101.37035 | 37956 ft | 453 kts | 336° |
| 2026-05-04 03:46 | 4.01041 | 101.34474 | 37954 ft | 452 kts | 336° |
| 2026-05-04 03:47 | 4.06784 | 101.31921 | 37960 ft | 451 kts | 336° |
| 2026-05-04 03:47 | 4.12520 | 101.29370 | 37960 ft | 450 kts | 336° |
| 2026-05-04 03:48 | 4.18245 | 101.26821 | 37959 ft | 450 kts | 336° |
| 2026-05-04 03:48 | 4.23842 | 101.24329 | 37970 ft | 451 kts | 336° |
| 2026-05-04 03:49 | 4.29584 | 101.21771 | 37959 ft | 450 kts | 336° |
| 2026-05-04 03:49 | 4.35145 | 101.19286 | 37955 ft | 451 kts | 336° |
| 2026-05-04 03:50 | 4.40879 | 101.16731 | 37947 ft | 450 kts | 336° |
| 2026-05-04 03:50 | 4.46601 | 101.14190 | 37941 ft | 450 kts | 336° |
| 2026-05-04 03:51 | 4.52328 | 101.11643 | 37937 ft | 450 kts | 336° |
| 2026-05-04 03:51 | 4.58054 | 101.09092 | 37936 ft | 450 kts | 336° |
| 2026-05-04 03:52 | 4.63808 | 101.06602 | 37938 ft | 450 kts | 336° |
| 2026-05-04 03:52 | 4.69543 | 101.04145 | 37945 ft | 451 kts | 336° |
| 2026-05-04 03:53 | 4.75318 | 101.01662 | 37957 ft | 452 kts | 336° |
| 2026-05-04 03:53 | 4.81105 | 100.99164 | 37954 ft | 451 kts | 336° |
| 2026-05-04 03:54 | 4.86714 | 100.96746 | 37961 ft | 452 kts | 336° |
| 2026-05-04 03:54 | 4.92456 | 100.94272 | 37960 ft | 451 kts | 336° |
| 2026-05-04 03:55 | 4.98222 | 100.91785 | 37958 ft | 451 kts | 336° |
| 2026-05-04 03:55 | 5.04032 | 100.89274 | 37964 ft | 452 kts | 336° |
| 2026-05-04 03:56 | 5.09777 | 100.86792 | 37968 ft | 452 kts | 336° |
| 2026-05-04 03:56 | 5.15556 | 100.84295 | 37964 ft | 452 kts | 336° |
| 2026-05-04 03:57 | 5.21326 | 100.81800 | 37964 ft | 451 kts | 336° |
| 2026-05-04 03:57 | 5.27090 | 100.79307 | 37962 ft | 451 kts | 336° |
| 2026-05-04 03:58 | 5.35720 | 100.75562 | 37960 ft | 450 kts | 335° |
| 2026-05-04 03:58 | 5.41255 | 100.72615 | 37957 ft | 450 kts | 330° |
| 2026-05-04 03:59 | 5.46713 | 100.69527 | 37948 ft | 450 kts | 330° |
| 2026-05-04 03:59 | 5.52177 | 100.66446 | 37942 ft | 450 kts | 330° |
| 2026-05-04 04:00 | 5.57647 | 100.63355 | 37939 ft | 451 kts | 330° |
| 2026-05-04 04:00 | 5.63112 | 100.60265 | 37938 ft | 451 kts | 330° |
| 2026-05-04 04:01 | 5.68546 | 100.57191 | 37941 ft | 451 kts | 330° |
| 2026-05-04 04:01 | 5.74018 | 100.54092 | 37944 ft | 451 kts | 331° |
| 2026-05-04 04:02 | 5.79495 | 100.50990 | 37945 ft | 452 kts | 330° |
| 2026-05-04 04:02 | 5.84902 | 100.47748 | 37947 ft | 452 kts | 329° |
| 2026-05-04 04:03 | 5.90292 | 100.44484 | 37945 ft | 453 kts | 329° |
| 2026-05-04 04:03 | 5.95699 | 100.41228 | 37944 ft | 453 kts | 329° |
| 2026-05-04 04:04 | 6.01120 | 100.37972 | 37942 ft | 454 kts | 329° |
| 2026-05-04 04:04 | 6.06511 | 100.34737 | 37941 ft | 454 kts | 329° |
| 2026-05-04 04:05 | 6.11945 | 100.31475 | 37942 ft | 455 kts | 329° |
| 2026-05-04 04:05 | 6.17386 | 100.28207 | 37943 ft | 455 kts | 329° |
| 2026-05-04 04:06 | 6.22834 | 100.24939 | 37940 ft | 456 kts | 329° |
| 2026-05-04 04:06 | 6.28251 | 100.21682 | 37944 ft | 456 kts | 329° |
| 2026-05-04 04:07 | 6.33690 | 100.18414 | 37945 ft | 457 kts | 329° |
| 2026-05-04 04:07 | 6.39149 | 100.15128 | 37945 ft | 457 kts | 328° |
| 2026-05-04 04:08 | 6.44225 | 100.11296 | 37946 ft | 457 kts | 318° |
| 2026-05-04 04:08 | 6.48623 | 100.06721 | 37942 ft | 457 kts | 312° |
| 2026-05-04 04:09 | 6.52907 | 100.01985 | 37944 ft | 458 kts | 312° |
| 2026-05-04 04:09 | 6.57199 | 99.97251 | 37943 ft | 458 kts | 312° |
| 2026-05-04 04:10 | 6.61485 | 99.92521 | 37942 ft | 458 kts | 312° |
| 2026-05-04 04:10 | 6.65772 | 99.87789 | 37739 ft | 458 kts | 312° |
| 2026-05-04 04:11 | 6.67925 | 99.85413 | 37288 ft | 459 kts | 312° |
| 2026-05-04 04:11 | 6.70076 | 99.83036 | 36812 ft | 459 kts | 312° |
| 2026-05-04 04:11 | 6.72223 | 99.80664 | 36346 ft | 459 kts | 312° |
| 2026-05-04 04:11 | 6.74380 | 99.78283 | 35889 ft | 461 kts | 312° |
| 2026-05-04 04:12 | 6.76542 | 99.75889 | 35448 ft | 463 kts | 312° |
| 2026-05-04 04:12 | 6.78708 | 99.73487 | 35002 ft | 464 kts | 311° |
| 2026-05-04 04:12 | 6.80882 | 99.71074 | 34566 ft | 466 kts | 311° |
| 2026-05-04 04:12 | 6.83066 | 99.68653 | 34141 ft | 467 kts | 312° |
| 2026-05-04 04:13 | 6.85228 | 99.66263 | 33692 ft | 468 kts | 312° |
| 2026-05-04 04:13 | 6.87426 | 99.63835 | 33216 ft | 470 kts | 312° |
| 2026-05-04 04:13 | 6.89632 | 99.61398 | 32748 ft | 472 kts | 312° |
| 2026-05-04 04:13 | 6.91845 | 99.58950 | 32283 ft | 474 kts | 312° |
| 2026-05-04 04:14 | 6.94066 | 99.56489 | 31828 ft | 476 kts | 313° |
| 2026-05-04 04:14 | 6.96297 | 99.54020 | 31378 ft | 477 kts | 313° |
| 2026-05-04 04:14 | 6.98538 | 99.51539 | 30887 ft | 480 kts | 313° |
| 2026-05-04 04:14 | 7.00783 | 99.49050 | 30342 ft | 481 kts | 313° |
| 2026-05-04 04:15 | 7.03057 | 99.46589 | 29771 ft | 478 kts | 314° |
| 2026-05-04 04:15 | 7.05345 | 99.44167 | 29147 ft | 474 kts | 314° |
| 2026-05-04 04:15 | 7.07599 | 99.41787 | 28636 ft | 466 kts | 314° |
| 2026-05-04 04:15 | 7.09820 | 99.39438 | 28147 ft | 459 kts | 314° |
| 2026-05-04 04:16 | 7.11276 | 99.37895 | 27761 ft | 456 kts | 314° |
| 2026-05-04 04:16 | 7.12940 | 99.36129 | 27302 ft | 453 kts | 314° |
| 2026-05-04 04:17 | 7.15094 | 99.33837 | 26721 ft | 449 kts | 314° |
| 2026-05-04 04:17 | 7.17231 | 99.31556 | 26117 ft | 446 kts | 314° |
| 2026-05-04 04:17 | 7.19358 | 99.29290 | 25557 ft | 442 kts | 314° |
| 2026-05-04 04:17 | 7.21468 | 99.27043 | 24968 ft | 440 kts | 314° |
| 2026-05-04 04:18 | 7.23567 | 99.24809 | 24384 ft | 437 kts | 314° |
| 2026-05-04 04:18 | 7.25652 | 99.22585 | 23796 ft | 435 kts | 314° |
| 2026-05-04 04:18 | 7.27698 | 99.20398 | 23175 ft | 433 kts | 314° |
| 2026-05-04 04:18 | 7.29753 | 99.18206 | 22622 ft | 428 kts | 314° |
| 2026-05-04 04:19 | 7.31787 | 99.16036 | 22048 ft | 423 kts | 314° |
| 2026-05-04 04:19 | 7.33794 | 99.13891 | 21470 ft | 419 kts | 314° |
| 2026-05-04 04:19 | 7.35790 | 99.11759 | 20917 ft | 416 kts | 314° |
| 2026-05-04 04:19 | 7.37772 | 99.09641 | 20319 ft | 414 kts | 314° |
| 2026-05-04 04:20 | 7.39741 | 99.07543 | 19741 ft | 411 kts | 315° |
| 2026-05-04 04:20 | 7.41699 | 99.05458 | 19208 ft | 407 kts | 314° |
| 2026-05-04 04:20 | 7.43615 | 99.03407 | 18664 ft | 405 kts | 314° |
| 2026-05-04 04:20 | 7.45541 | 99.01342 | 18077 ft | 403 kts | 314° |
| 2026-05-04 04:21 | 7.47454 | 98.99292 | 17508 ft | 399 kts | 314° |
| 2026-05-04 04:21 | 7.49344 | 98.97268 | 16956 ft | 395 kts | 314° |
| 2026-05-04 04:21 | 7.51217 | 98.95263 | 16405 ft | 391 kts | 314° |
| 2026-05-04 04:21 | 7.53079 | 98.93269 | 15863 ft | 388 kts | 314° |
| 2026-05-04 04:22 | 7.54926 | 98.91292 | 15277 ft | 386 kts | 314° |
| 2026-05-04 04:22 | 7.56759 | 98.89332 | 14782 ft | 382 kts | 314° |
| 2026-05-04 04:22 | 7.58578 | 98.87378 | 14242 ft | 380 kts | 314° |
| 2026-05-04 04:22 | 7.60384 | 98.85439 | 13685 ft | 378 kts | 314° |
| 2026-05-04 04:23 | 7.62175 | 98.83520 | 13157 ft | 374 kts | 314° |
| 2026-05-04 04:23 | 7.63952 | 98.81623 | 12635 ft | 370 kts | 314° |
| 2026-05-04 04:23 | 7.65711 | 98.79746 | 12122 ft | 366 kts | 314° |
| 2026-05-04 04:23 | 7.67449 | 98.77886 | 11612 ft | 363 kts | 314° |
| 2026-05-04 04:24 | 7.69172 | 98.76037 | 11104 ft | 360 kts | 314° |
| 2026-05-04 04:24 | 7.70880 | 98.74205 | 10604 ft | 357 kts | 314° |
| 2026-05-04 04:24 | 7.72555 | 98.72409 | 10382 ft | 345 kts | 313° |
| 2026-05-04 04:24 | 7.74163 | 98.70674 | 10243 ft | 331 kts | 313° |
| 2026-05-04 04:25 | 7.75697 | 98.69010 | 10135 ft | 318 kts | 311° |
| 2026-05-04 04:25 | 7.76889 | 98.67192 | 9941 ft | 308 kts | 295° |
| 2026-05-04 04:25 | 7.77483 | 98.65174 | 9709 ft | 300 kts | 278° |
| 2026-05-04 04:25 | 7.77803 | 98.63106 | 9616 ft | 300 kts | 279° |
| 2026-05-04 04:26 | 7.78143 | 98.61018 | 9464 ft | 301 kts | 279° |
| 2026-05-04 04:26 | 7.78487 | 98.58942 | 9293 ft | 299 kts | 279° |
| 2026-05-04 04:26 | 7.78832 | 98.56875 | 9124 ft | 298 kts | 279° |
| 2026-05-04 04:26 | 7.79175 | 98.54815 | 8957 ft | 298 kts | 279° |
| 2026-05-04 04:27 | 7.79516 | 98.52760 | 8786 ft | 297 kts | 279° |
| 2026-05-04 04:27 | 7.79857 | 98.50700 | 8618 ft | 297 kts | 279° |
| 2026-05-04 04:27 | 7.80218 | 98.48657 | 8450 ft | 296 kts | 283° |
| 2026-05-04 04:27 | 7.80864 | 98.46696 | 8287 ft | 295 kts | 294° |
| 2026-05-04 04:28 | 7.81475 | 98.45475 | 8173 ft | 294 kts | 298° |
| 2026-05-04 04:28 | 7.82440 | 98.43659 | 8006 ft | 294 kts | 298° |
| 2026-05-04 04:28 | 7.83394 | 98.41835 | 7841 ft | 294 kts | 298° |
| 2026-05-04 04:28 | 7.84659 | 98.39400 | 7622 ft | 292 kts | 298° |
| 2026-05-04 04:29 | 7.85282 | 98.38199 | 7508 ft | 292 kts | 298° |
| 2026-05-04 04:29 | 7.86543 | 98.35769 | 7289 ft | 291 kts | 298° |
| 2026-05-04 04:29 | 7.87482 | 98.33963 | 7121 ft | 290 kts | 298° |
| 2026-05-04 04:29 | 7.88102 | 98.32772 | 7020 ft | 290 kts | 298° |
| 2026-05-04 04:30 | 7.89037 | 98.30973 | 6854 ft | 288 kts | 298° |
| 2026-05-04 04:30 | 7.89966 | 98.29184 | 6691 ft | 289 kts | 298° |
| 2026-05-04 04:30 | 7.90897 | 98.27391 | 6523 ft | 287 kts | 298° |
| 2026-05-04 04:30 | 7.91823 | 98.25607 | 6364 ft | 287 kts | 298° |
| 2026-05-04 04:31 | 7.92748 | 98.23824 | 6196 ft | 287 kts | 298° |
| 2026-05-04 04:31 | 7.93673 | 98.22046 | 6033 ft | 286 kts | 298° |
| 2026-05-04 04:31 | 7.94585 | 98.20293 | 5869 ft | 285 kts | 298° |
| 2026-05-04 04:31 | 7.95503 | 98.18525 | 5711 ft | 284 kts | 298° |
| 2026-05-04 04:32 | 7.96417 | 98.16763 | 5540 ft | 283 kts | 298° |
| 2026-05-04 04:32 | 7.97329 | 98.15005 | 5390 ft | 283 kts | 298° |
| 2026-05-04 04:32 | 7.98241 | 98.13252 | 5223 ft | 281 kts | 298° |
| 2026-05-04 04:32 | 7.98989 | 98.11441 | 5072 ft | 280 kts | 283° |
| 2026-05-04 04:33 | 7.99156 | 98.09489 | 4913 ft | 280 kts | 265° |
| 2026-05-04 04:33 | 7.98959 | 98.07549 | 4822 ft | 273 kts | 264° |
| 2026-05-04 04:33 | 7.98819 | 98.05677 | 4724 ft | 262 kts | 273° |
| 2026-05-04 04:33 | 7.99325 | 98.03974 | 4636 ft | 250 kts | 303° |
| 2026-05-04 04:34 | 8.00534 | 98.02816 | 4526 ft | 235 kts | 335° |
| 2026-05-04 04:34 | 8.02056 | 98.02442 | 4413 ft | 221 kts | 358° |
| 2026-05-04 04:34 | 8.03564 | 98.02343 | 4154 ft | 219 kts | 357° |
| 2026-05-04 04:34 | 8.05073 | 98.02224 | 4064 ft | 221 kts | 356° |
| 2026-05-04 04:35 | 8.06603 | 98.02148 | 3997 ft | 218 kts | 10° |
| 2026-05-04 04:35 | 8.07942 | 98.02728 | 3992 ft | 216 kts | 43° |
| 2026-05-04 04:35 | 8.08728 | 98.03986 | 3941 ft | 206 kts | 79° |
| 2026-05-04 04:35 | 8.08872 | 98.05374 | 3908 ft | 191 kts | 86° |
| 2026-05-04 04:36 | 8.08975 | 98.06681 | 3645 ft | 187 kts | 86° |
| 2026-05-04 04:36 | 8.09087 | 98.07998 | 3272 ft | 188 kts | 86° |
| 2026-05-04 04:36 | 8.09207 | 98.09305 | 2906 ft | 185 kts | 85° |
| 2026-05-04 04:36 | 8.09331 | 98.10603 | 2457 ft | 186 kts | 85° |
| 2026-05-04 04:37 | 8.09691 | 98.14430 | 1827 ft | 186 kts | 85° |
| 2026-05-04 04:37 | 8.09811 | 98.15700 | 1727 ft | 177 kts | 85° |
| 2026-05-04 04:38 | 8.09918 | 98.16827 | 1691 ft | 145 kts | 85° |
| 2026-05-04 04:38 | 8.10011 | 98.17780 | 1696 ft | 136 kts | 85° |
| 2026-05-04 04:38 | 8.10102 | 98.18734 | 1590 ft | 136 kts | 85° |
| 2026-05-04 04:38 | 8.10190 | 98.19679 | 1409 ft | 134 kts | 85° |
| 2026-05-04 04:39 | 8.10277 | 98.20614 | 1236 ft | 134 kts | 85° |
| 2026-05-04 04:39 | 8.10364 | 98.21548 | 1111 ft | 132 kts | 85° |
| 2026-05-04 04:39 | 8.10451 | 98.22473 | 1113 ft | 134 kts | 85° |
| 2026-05-04 04:39 | 8.10539 | 98.23411 | 1106 ft | 134 kts | 85° |
| 2026-05-04 04:40 | 8.10626 | 98.24340 | 1055 ft | 130 kts | 85° |
| 2026-05-04 04:40 | 8.10690 | 98.25216 | 944 ft | 125 kts | 85° |
| 2026-05-04 04:40 | 8.10784 | 98.26105 | 848 ft | 132 kts | 82° |
| 2026-05-04 04:40 | 8.10896 | 98.27002 | 766 ft | 125 kts | 83° |
| 2026-05-04 04:41 | 8.10987 | 98.27872 | 593 ft | 126 kts | 84° |
| 2026-05-04 04:41 | 8.11071 | 98.28757 | 399 ft | 125 kts | 86° |
| 2026-05-04 04:41 | 8.11139 | 98.29627 | 211 ft | 124 kts | 85° |
| 2026-05-04 04:41 | 8.11214 | 98.30494 | 64 ft | 120 kts | 84° |
| 2026-05-04 04:42 | 8.11285 | 98.31262 | 50 ft | 92 kts | 85° |
| 2026-05-04 04:42 | 8.11322 | 98.31698 | 55 ft | 34 kts | 85° |
| 2026-05-04 04:42 | 8.11346 | 98.31944 | 66 ft | 40 kts | 84° |
| 2026-05-04 04:42 | 8.11369 | 98.32252 | 72 ft | 48 kts | 95° |
| 2026-05-04 04:43 | 8.11292 | 98.32427 | 74 ft | 13 kts | 166° |
| 2026-05-04 04:43 | 8.11246 | 98.32358 | 70 ft | 16 kts | 261° |
| 2026-05-04 04:43 | 8.11236 | 98.32233 | 72 ft | 20 kts | 265° |
| 2026-05-04 04:43 | 8.11220 | 98.32076 | 68 ft | 25 kts | 265° |
| 2026-05-04 04:44 | 8.11203 | 98.31893 | 62 ft | 28 kts | 266° |
| 2026-05-04 04:44 | 8.11184 | 98.31685 | 60 ft | 32 kts | 264° |
| 2026-05-04 04:44 | 8.11162 | 98.31450 | 52 ft | 35 kts | 264° |
| 2026-05-04 04:44 | 8.11139 | 98.31196 | 48 ft | 37 kts | 264° |
| 2026-05-04 04:45 | 8.11119 | 98.31000 | 43 ft | 16 kts | 260° |
| 2026-05-04 04:45 | 8.11080 | 98.30879 | 40 ft | 20 kts | 265° |
| 2026-05-04 04:45 | 8.11067 | 98.30720 | 37 ft | 25 kts | 263° |
| 2026-05-04 04:47 | 8.10772 | 98.30533 | 30 ft | 0 kts | 105° |
| 2026-05-04 04:49 | 8.10772 | 98.30532 | 30 ft | 0 kts | 105° |
| 2026-05-04 04:57 | 8.10772 | 98.30533 | 33 ft | 0 kts | 105° |